Time;durP1;ratioP1;P1;durP2;ratioP2;P2;SDS_P1;SDS_P2;PMS_P1;PMS_P2;Temp;Humidity;BMP_temperature;BMP_pressure;BME280_temperature;BME280_humidity;BME280_pressure;Samples;Min_cycle;Max_cycle;Signal;HPM_P1;HPM_P2
2021/09/23 00:00:55;;;;;;;36.17;25.50;;;;;;;;;;2627320;38;20497;-77
2021/09/23 00:04:15;;;;;;;39.50;25.40;;;;;;;;;;2629967;30;20394;-79
2021/09/23 00:06:12;;;;;;;41.80;26.57;;;;;;;;;;2629067;30;20375;-78
2021/09/23 00:08:40;;;;;;;33.77;25.10;;;;;;;;;;2628994;38;20391;-77
2021/09/23 00:11:07;;;;;;;36.70;24.77;;;;;;;;;;2627809;30;20437;-77
2021/09/23 00:13:34;;;;;;;37.83;26.90;;;;;;;;;;2629421;30;20338;-79
2021/09/23 00:16:01;;;;;;;40.57;26.37;;;;;;;;;;2628551;30;20856;-77
2021/09/23 00:18:29;;;;;;;36.87;26.03;;;;;;;;;;2628959;30;20992;-77
2021/09/23 00:20:56;;;;;;;36.67;25.83;;;;;;;;;;2628250;38;20374;-77
2021/09/23 00:23:22;;;;;;;37.90;25.80;;;;;;;;;;2629310;30;20482;-77
2021/09/23 00:25:48;;;;;;;34.60;25.33;;;;;;;;;;2629432;30;20377;-77
2021/09/23 00:28:14;;;;;;;35.43;26.93;;;;;;;;;;2629311;30;20485;-77
2021/09/23 00:30:41;;;;;;;39.60;25.07;;;;;;;;;;2628491;30;20942;-76
2021/09/23 00:33:07;;;;;;;40.50;26.93;;;;;;;;;;2629152;30;20831;-77
2021/09/23 00:35:34;;;;;;;38.30;26.70;;;;;;;;;;2628497;30;20359;-77
2021/09/23 00:38:00;;;;;;;45.20;31.53;;;;;;;;;;2628458;30;20367;-78
2021/09/23 00:40:32;;;;;;;43.33;31.43;;;;;;;;;;2628426;30;20386;-78
2021/09/23 00:42:58;;;;;;;48.23;30.27;;;;;;;;;;2628824;30;20370;-78
2021/09/23 00:45:26;;;;;;;48.07;31.30;;;;;;;;;;2627883;38;20845;-78
2021/09/23 00:47:52;;;;;;;47.37;30.10;;;;;;;;;;2629442;30;20371;-78
2021/09/23 00:50:20;;;;;;;46.60;31.67;;;;;;;;;;2628960;30;21018;-77
2021/09/23 00:52:48;;;;;;;46.33;30.77;;;;;;;;;;2629296;30;20370;-77
2021/09/23 00:55:14;;;;;;;46.67;30.90;;;;;;;;;;2628358;30;20386;-77
2021/09/23 00:57:41;;;;;;;39.33;28.57;;;;;;;;;;2628157;38;20490;-77
2021/09/23 01:00:09;;;;;;;38.67;28.77;;;;;;;;;;2628878;30;20930;-77
2021/09/23 01:02:36;;;;;;;38.27;26.40;;;;;;;;;;2625851;38;20747;-81
2021/09/23 01:05:02;;;;;;;45.97;29.03;;;;;;;;;;2631046;30;20394;-82
2021/09/23 01:07:28;;;;;;;39.07;29.00;;;;;;;;;;2630356;30;20375;-80
2021/09/23 01:09:54;;;;;;;49.67;27.23;;;;;;;;;;2630750;30;20534;-82
2021/09/23 01:12:22;;;;;;;38.03;26.33;;;;;;;;;;2628259;38;20383;-82
2021/09/23 01:14:48;;;;;;;40.87;28.10;;;;;;;;;;2629585;30;20383;-81
2021/09/23 01:17:14;;;;;;;45.77;27.37;;;;;;;;;;2627760;38;20343;-82
2021/09/23 01:19:41;;;;;;;40.43;28.30;;;;;;;;;;2631363;38;20383;-80
2021/09/23 01:22:07;;;;;;;33.63;25.87;;;;;;;;;;2629103;30;20402;-83
2021/09/23 01:24:33;;;;;;;34.57;26.40;;;;;;;;;;2626869;38;20401;-83
2021/09/23 01:27:01;;;;;;;38.30;25.43;;;;;;;;;;2628628;30;20367;-83
2021/09/23 01:29:28;;;;;;;35.83;25.30;;;;;;;;;;2630875;30;20865;-82
2021/09/23 01:31:54;;;;;;;34.50;25.00;;;;;;;;;;2628566;30;20482;-79
2021/09/23 01:34:20;;;;;;;41.77;27.30;;;;;;;;;;2627867;30;20367;-82
2021/09/23 01:36:46;;;;;;;35.53;24.87;;;;;;;;;;2627608;38;20367;-82
2021/09/23 01:39:23;;;;;;;34.37;25.17;;;;;;;;;;2628384;38;20383;-83
2021/09/23 01:41:49;;;;;;;35.27;25.50;;;;;;;;;;2626942;38;20543;-81
2021/09/23 01:44:15;;;;;;;42.30;26.07;;;;;;;;;;2628836;38;20391;-83
2021/09/23 01:46:41;;;;;;;35.13;25.83;;;;;;;;;;2630126;30;20391;-82
2021/09/23 01:49:07;;;;;;;33.30;25.10;;;;;;;;;;2628326;30;20878;-82
2021/09/23 01:51:34;;;;;;;36.13;25.00;;;;;;;;;;2627946;30;20477;-82
2021/09/23 01:54:00;;;;;;;33.50;24.50;;;;;;;;;;2627733;30;20397;-82
2021/09/23 01:56:26;;;;;;;34.97;24.77;;;;;;;;;;2628906;30;20933;-82
2021/09/23 01:58:52;;;;;;;30.47;24.27;;;;;;;;;;2626475;31;20370;-82
2021/09/23 02:01:18;;;;;;;40.67;24.67;;;;;;;;;;2632048;30;20382;-83
2021/09/23 02:03:44;;;;;;;32.83;24.13;;;;;;;;;;2629079;30;20895;-83
2021/09/23 02:06:10;;;;;;;33.13;24.43;;;;;;;;;;2629459;30;20826;-81
2021/09/23 02:08:36;;;;;;;33.13;23.23;;;;;;;;;;2629642;30;20397;-82
2021/09/23 02:11:04;;;;;;;34.03;25.90;;;;;;;;;;2629794;30;20435;-83
2021/09/23 02:13:30;;;;;;;32.70;22.83;;;;;;;;;;2628685;38;20474;-82
2021/09/23 02:15:56;;;;;;;34.80;24.10;;;;;;;;;;2631434;30;20569;-83
2021/09/23 02:18:23;;;;;;;37.97;26.67;;;;;;;;;;2627864;30;20934;-82
2021/09/23 02:20:49;;;;;;;34.63;23.70;;;;;;;;;;2629751;30;20470;-82
2021/09/23 02:23:15;;;;;;;30.20;21.50;;;;;;;;;;2631893;38;20522;-84
2021/09/23 02:25:42;;;;;;;30.53;22.87;;;;;;;;;;2629251;30;20387;-83
2021/09/23 02:28:08;;;;;;;31.80;21.57;;;;;;;;;;2629773;30;20378;-83
2021/09/23 02:30:34;;;;;;;31.77;23.97;;;;;;;;;;2630283;30;20358;-83
2021/09/23 02:33:00;;;;;;;30.70;22.17;;;;;;;;;;2628848;30;20391;-82
2021/09/23 02:35:26;;;;;;;31.80;23.27;;;;;;;;;;2627287;38;20379;-83
2021/09/23 02:37:52;;;;;;;25.97;22.27;;;;;;;;;;2628214;30;20383;-83
2021/09/23 02:40:18;;;;;;;28.60;21.90;;;;;;;;;;2628306;30;20944;-82
2021/09/23 02:42:44;;;;;;;28.40;21.83;;;;;;;;;;2629110;30;20872;-83
2021/09/23 02:45:11;;;;;;;27.33;20.73;;;;;;;;;;2629091;30;20351;-82
2021/09/23 02:47:37;;;;;;;27.17;21.40;;;;;;;;;;2627620;30;20377;-82
2021/09/23 02:50:04;;;;;;;24.87;19.13;;;;;;;;;;2626645;38;20464;-83
2021/09/23 02:52:30;;;;;;;29.10;21.50;;;;;;;;;;2628197;30;20351;-82
2021/09/23 02:54:56;;;;;;;35.07;24.80;;;;;;;;;;2627867;30;20362;-83
2021/09/23 02:57:22;;;;;;;32.97;22.67;;;;;;;;;;2628458;38;20398;-82
2021/09/23 02:59:48;;;;;;;34.03;24.63;;;;;;;;;;2629395;30;20483;-82
2021/09/23 03:02:14;;;;;;;29.77;23.03;;;;;;;;;;2630434;30;20375;-82
2021/09/23 03:04:40;;;;;;;30.77;22.97;;;;;;;;;;2628204;38;20367;-80
2021/09/23 03:07:06;;;;;;;30.27;21.20;;;;;;;;;;2626574;38;20932;-81
2021/09/23 03:09:33;;;;;;;31.70;22.30;;;;;;;;;;2626556;38;20405;-82
2021/09/23 03:11:59;;;;;;;27.80;20.77;;;;;;;;;;2629468;30;20858;-83
2021/09/23 03:14:25;;;;;;;27.27;21.00;;;;;;;;;;2626589;38;20454;-81
2021/09/23 03:16:51;;;;;;;26.17;22.40;;;;;;;;;;2627812;38;20466;-82
2021/09/23 03:19:17;;;;;;;33.10;22.77;;;;;;;;;;2625012;30;20379;-81
2021/09/23 03:21:43;;;;;;;29.43;22.67;;;;;;;;;;2628385;30;20351;-82
2021/09/23 03:24:10;;;;;;;30.13;22.77;;;;;;;;;;2626867;30;20371;-82
2021/09/23 03:26:36;;;;;;;29.43;21.00;;;;;;;;;;2627729;30;20375;-82
2021/09/23 03:29:02;;;;;;;31.27;22.20;;;;;;;;;;2628493;30;20371;-82
2021/09/23 03:31:28;;;;;;;31.97;24.03;;;;;;;;;;2626259;30;20366;-83
2021/09/23 03:33:54;;;;;;;31.53;22.10;;;;;;;;;;2628258;30;20378;-83
2021/09/23 03:36:21;;;;;;;32.03;23.53;;;;;;;;;;2627572;30;20969;-84
2021/09/23 03:38:47;;;;;;;29.27;21.37;;;;;;;;;;2625146;38;20387;-83
2021/09/23 03:41:13;;;;;;;32.43;22.70;;;;;;;;;;2628906;30;20346;-81
2021/09/23 03:43:39;;;;;;;31.20;21.57;;;;;;;;;;2626972;38;20365;-82
2021/09/23 03:46:05;;;;;;;28.40;20.00;;;;;;;;;;2628209;38;20366;-82
2021/09/23 03:48:32;;;;;;;35.33;21.40;;;;;;;;;;2626499;30;20399;-82
2021/09/23 03:50:58;;;;;;;27.40;20.47;;;;;;;;;;2627369;38;20354;-81
2021/09/23 03:53:24;;;;;;;25.60;20.57;;;;;;;;;;2627252;30;20379;-82
2021/09/23 03:55:51;;;;;;;35.73;21.27;;;;;;;;;;2626829;30;20370;-81
2021/09/23 03:58:17;;;;;;;30.03;20.37;;;;;;;;;;2627581;38;20346;-82
2021/09/23 04:00:43;;;;;;;27.90;20.20;;;;;;;;;;2628185;30;20351;-82
2021/09/23 04:03:09;;;;;;;29.03;19.93;;;;;;;;;;2627285;30;20383;-82
2021/09/23 04:05:35;;;;;;;30.37;20.23;;;;;;;;;;2628469;30;20363;-83
2021/09/23 04:08:02;;;;;;;23.03;18.10;;;;;;;;;;2626544;30;20370;-83
2021/09/23 04:10:28;;;;;;;24.07;18.43;;;;;;;;;;2629463;30;20367;-81
2021/09/23 04:12:55;;;;;;;20.17;16.87;;;;;;;;;;2628583;38;20398;-80
2021/09/23 04:15:23;;;;;;;23.10;17.10;;;;;;;;;;2630722;30;20390;-81
2021/09/23 04:17:50;;;;;;;23.17;17.17;;;;;;;;;;2630530;30;20759;-81
2021/09/23 04:20:16;;;;;;;24.90;17.60;;;;;;;;;;2630947;38;20361;-82
2021/09/23 04:22:42;;;;;;;23.67;18.70;;;;;;;;;;2633677;30;20363;-81
2021/09/23 04:25:09;;;;;;;27.13;18.23;;;;;;;;;;2629283;30;20391;-80
2021/09/23 04:27:35;;;;;;;25.90;18.50;;;;;;;;;;2631324;38;20927;-83
2021/09/23 04:30:01;;;;;;;23.47;17.50;;;;;;;;;;2634059;38;20379;-83
2021/09/23 04:32:27;;;;;;;26.50;17.87;;;;;;;;;;2634133;38;20391;-81
2021/09/23 04:34:53;;;;;;;23.83;17.83;;;;;;;;;;2638871;38;20399;-83
2021/09/23 04:37:19;;;;;;;24.40;19.00;;;;;;;;;;2631200;30;20897;-81
2021/09/23 04:39:45;;;;;;;22.40;17.07;;;;;;;;;;2629623;30;20367;-82
2021/09/23 04:42:11;;;;;;;25.63;17.93;;;;;;;;;;2629824;38;20530;-82
2021/09/23 04:44:37;;;;;;;28.50;17.53;;;;;;;;;;2628646;30;20370;-82
2021/09/23 04:47:04;;;;;;;20.70;17.47;;;;;;;;;;2629226;38;20366;-83
2021/09/23 04:49:30;;;;;;;23.13;18.60;;;;;;;;;;2633904;31;20379;-82
2021/09/23 04:51:56;;;;;;;25.43;18.73;;;;;;;;;;2628382;30;20379;-82
2021/09/23 04:54:22;;;;;;;25.07;18.73;;;;;;;;;;2628898;30;20387;-82
2021/09/23 04:56:48;;;;;;;23.80;18.40;;;;;;;;;;2628721;30;20470;-81
2021/09/23 04:59:14;;;;;;;22.30;16.47;;;;;;;;;;2629060;30;20367;-82
2021/09/23 05:01:40;;;;;;;23.23;15.73;;;;;;;;;;2630660;38;20392;-82
2021/09/23 05:04:06;;;;;;;18.77;15.50;;;;;;;;;;2630534;30;20795;-82
2021/09/23 05:06:33;;;;;;;23.70;17.13;;;;;;;;;;2629968;38;20398;-83
2021/09/23 05:09:01;;;;;;;17.83;14.97;;;;;;;;;;2627629;38;20366;-82
2021/09/23 05:11:27;;;;;;;20.60;15.10;;;;;;;;;;2629319;30;20387;-83
2021/09/23 05:13:54;;;;;;;21.73;17.37;;;;;;;;;;2627378;38;20375;-81
2021/09/23 05:16:20;;;;;;;21.40;16.90;;;;;;;;;;2629382;38;20375;-81
2021/09/23 05:18:47;;;;;;;17.33;14.77;;;;;;;;;;2635629;30;20411;-81
2021/09/23 05:21:13;;;;;;;16.80;15.03;;;;;;;;;;2637397;30;20828;-81
2021/09/23 05:23:39;;;;;;;18.83;14.70;;;;;;;;;;2627552;38;20931;-82
2021/09/23 05:26:05;;;;;;;19.00;13.83;;;;;;;;;;2632616;38;20353;-82
2021/09/23 05:28:31;;;;;;;21.47;14.93;;;;;;;;;;2637836;30;20359;-80
2021/09/23 05:30:58;;;;;;;16.80;14.57;;;;;;;;;;2629318;30;20922;-84
2021/09/23 05:33:24;;;;;;;18.40;14.27;;;;;;;;;;2629652;30;20379;-84
2021/09/23 05:35:50;;;;;;;19.73;15.43;;;;;;;;;;2629948;30;20509;-83
2021/09/23 05:38:16;;;;;;;16.17;13.70;;;;;;;;;;2629253;30;20381;-85
2021/09/23 05:40:42;;;;;;;20.97;15.70;;;;;;;;;;2632708;38;20363;-79
2021/09/23 05:43:08;;;;;;;17.93;13.47;;;;;;;;;;2629170;38;20383;-82
2021/09/23 05:45:34;;;;;;;22.30;14.47;;;;;;;;;;2629168;30;20344;-83
2021/09/23 05:48:00;;;;;;;15.43;13.07;;;;;;;;;;2629798;38;20351;-82
2021/09/23 05:50:26;;;;;;;17.40;13.67;;;;;;;;;;2628270;38;20401;-82
2021/09/23 05:52:52;;;;;;;18.20;13.23;;;;;;;;;;2629110;30;20367;-80
2021/09/23 05:55:18;;;;;;;16.80;13.23;;;;;;;;;;2625652;38;20870;-79
2021/09/23 05:57:44;;;;;;;17.43;14.27;;;;;;;;;;2624766;30;20917;-83
2021/09/23 06:00:15;;;;;;;14.57;13.07;;;;;;;;;;2624814;38;20487;-82
2021/09/23 06:02:41;;;;;;;15.20;11.97;;;;;;;;;;2625165;30;21027;-81
2021/09/23 06:05:07;;;;;;;17.03;12.87;;;;;;;;;;2623067;30;20383;-81
2021/09/23 06:07:34;;;;;;;19.00;13.00;;;;;;;;;;2624791;30;20922;-82
2021/09/23 06:10:00;;;;;;;13.57;12.13;;;;;;;;;;2622473;30;20587;-82
2021/09/23 06:12:26;;;;;;;17.63;13.53;;;;;;;;;;2621467;38;20495;-82
2021/09/23 06:14:52;;;;;;;22.50;14.20;;;;;;;;;;2623584;30;20828;-81
2021/09/23 06:17:18;;;;;;;16.77;13.07;;;;;;;;;;2625594;31;20383;-81
2021/09/23 06:19:44;;;;;;;19.17;10.93;;;;;;;;;;2621082;38;20371;-81
2021/09/23 06:22:10;;;;;;;14.33;11.50;;;;;;;;;;2619285;30;20371;-80
2021/09/23 06:24:36;;;;;;;13.60;10.37;;;;;;;;;;2621523;30;20399;-79
2021/09/23 06:27:02;;;;;;;13.77;11.10;;;;;;;;;;2624636;30;21212;-80
2021/09/23 06:29:28;;;;;;;15.20;10.30;;;;;;;;;;2623992;30;20507;-80
2021/09/23 06:31:55;;;;;;;17.90;10.23;;;;;;;;;;2623303;30;20343;-79
2021/09/23 06:34:21;;;;;;;13.43;9.97;;;;;;;;;;2626540;30;20470;-81
2021/09/23 06:36:47;;;;;;;14.10;10.00;;;;;;;;;;2624739;38;20374;-81
2021/09/23 06:39:15;;;;;;;12.93;9.50;;;;;;;;;;2622884;38;20866;-81
2021/09/23 06:41:41;;;;;;;9.83;8.93;;;;;;;;;;2624702;30;20390;-82
2021/09/23 06:44:07;;;;;;;12.60;8.13;;;;;;;;;;2626242;30;20446;-80
2021/09/23 06:46:34;;;;;;;13.13;9.83;;;;;;;;;;2625883;38;20403;-80
2021/09/23 06:49:00;;;;;;;14.17;9.43;;;;;;;;;;2624595;30;20429;-80
2021/09/23 06:51:26;;;;;;;11.00;8.87;;;;;;;;;;2624900;30;20378;-81
2021/09/23 06:53:54;;;;;;;10.27;8.03;;;;;;;;;;2623827;38;20382;-82
2021/09/23 06:56:21;;;;;;;11.53;8.70;;;;;;;;;;2622782;30;20771;-80
2021/09/23 06:58:47;;;;;;;12.97;9.40;;;;;;;;;;2621157;38;21519;-81
2021/09/23 07:01:13;;;;;;;11.40;8.47;;;;;;;;;;2622186;38;20405;-81
2021/09/23 07:03:39;;;;;;;13.57;9.77;;;;;;;;;;2623120;30;20398;-83
2021/09/23 07:06:05;;;;;;;13.73;9.67;;;;;;;;;;2624207;30;20804;-81
2021/09/23 07:08:31;;;;;;;13.83;9.63;;;;;;;;;;2626591;30;21292;-81
2021/09/23 07:10:57;;;;;;;9.90;8.50;;;;;;;;;;2623387;38;20383;-80
2021/09/23 07:13:23;;;;;;;12.87;8.97;;;;;;;;;;2623571;30;20525;-80
2021/09/23 07:15:49;;;;;;;9.67;8.47;;;;;;;;;;2622901;30;20392;-80
2021/09/23 07:18:15;;;;;;;11.93;9.40;;;;;;;;;;2622144;30;20803;-83
2021/09/23 07:20:41;;;;;;;12.07;9.63;;;;;;;;;;2620592;30;20949;-82
2021/09/23 07:23:07;;;;;;;13.30;9.57;;;;;;;;;;2620124;30;20371;-81
2021/09/23 07:25:34;;;;;;;15.03;8.83;;;;;;;;;;2620018;30;20390;-80
2021/09/23 07:28:03;;;;;;;9.60;8.60;;;;;;;;;;2620780;30;20371;-81
2021/09/23 07:30:30;;;;;;;11.40;8.80;;;;;;;;;;2622094;30;21106;-80
2021/09/23 07:32:56;;;;;;;10.20;9.10;;;;;;;;;;2620742;30;20845;-82
2021/09/23 07:35:22;;;;;;;9.87;8.77;;;;;;;;;;2619279;38;20922;-82
2021/09/23 07:37:48;;;;;;;10.53;9.23;;;;;;;;;;2620128;38;20410;-82
2021/09/23 07:40:15;;;;;;;10.57;8.90;;;;;;;;;;2617844;30;20987;-80
2021/09/23 07:42:41;;;;;;;8.80;7.93;;;;;;;;;;2620962;38;20407;-82
2021/09/23 07:45:08;;;;;;;10.00;9.00;;;;;;;;;;2619495;30;20351;-82
2021/09/23 07:47:34;;;;;;;11.63;9.20;;;;;;;;;;2619743;30;20543;-81
2021/09/23 07:50:00;;;;;;;11.37;10.20;;;;;;;;;;2624484;38;20413;-82
2021/09/23 07:52:26;;;;;;;12.67;10.07;;;;;;;;;;2622162;30;20371;-82
2021/09/23 07:54:55;;;;;;;13.27;11.27;;;;;;;;;;2620539;30;20450;-81
2021/09/23 07:57:22;;;;;;;14.47;10.83;;;;;;;;;;2621999;30;20375;-82
2021/09/23 07:59:49;;;;;;;13.27;10.30;;;;;;;;;;2622318;30;20371;-84
2021/09/23 08:02:15;;;;;;;16.10;9.30;;;;;;;;;;2621129;30;20402;-80
2021/09/23 08:04:41;;;;;;;9.97;8.97;;;;;;;;;;2620974;30;21134;-81
2021/09/23 08:07:07;;;;;;;12.63;9.83;;;;;;;;;;2623973;30;20370;-83
2021/09/23 08:09:33;;;;;;;12.23;9.57;;;;;;;;;;2621006;30;20375;-81
2021/09/23 08:11:59;;;;;;;11.27;9.60;;;;;;;;;;2619463;30;20494;-83
2021/09/23 08:14:25;;;;;;;9.07;8.17;;;;;;;;;;2620131;38;20947;-80
2021/09/23 08:16:52;;;;;;;11.33;9.83;;;;;;;;;;2622214;30;20406;-83
2021/09/23 08:19:18;;;;;;;14.43;8.63;;;;;;;;;;2623219;38;20868;-80
2021/09/23 08:21:44;;;;;;;12.50;8.73;;;;;;;;;;2624829;30;20398;-82
2021/09/23 08:24:10;;;;;;;10.90;9.80;;;;;;;;;;2631009;38;20479;-80
2021/09/23 08:26:36;;;;;;;10.03;8.93;;;;;;;;;;2634897;38;21146;-80
2021/09/23 08:29:04;;;;;;;12.83;9.30;;;;;;;;;;2633980;30;21217;-79
2021/09/23 08:31:30;;;;;;;12.80;11.20;;;;;;;;;;2637199;38;20374;-87
2021/09/23 08:33:56;;;;;;;9.30;8.33;;;;;;;;;;2634823;30;20355;-83
2021/09/23 08:36:22;;;;;;;11.10;9.10;;;;;;;;;;2630339;30;20511;-79
2021/09/23 08:38:50;;;;;;;14.30;9.77;;;;;;;;;;2629628;38;20367;-82
2021/09/23 08:41:16;;;;;;;11.40;9.63;;;;;;;;;;2632861;30;20409;-81
2021/09/23 08:43:44;;;;;;;10.87;9.30;;;;;;;;;;2629328;30;20370;-81
2021/09/23 08:46:10;;;;;;;10.67;9.57;;;;;;;;;;2630529;38;20916;-79
2021/09/23 08:48:38;;;;;;;10.10;9.03;;;;;;;;;;2635427;38;20367;-79
2021/09/23 08:51:05;;;;;;;12.20;9.73;;;;;;;;;;2632232;30;20373;-82
2021/09/23 08:53:32;;;;;;;13.13;9.20;;;;;;;;;;2631771;38;20419;-81
2021/09/23 08:56:00;;;;;;;12.80;9.23;;;;;;;;;;2628859;38;20794;-80
2021/09/23 08:58:27;;;;;;;11.63;9.50;;;;;;;;;;2627380;38;20351;-78
2021/09/23 09:01:04;;;;;;;10.07;8.50;;;;;;;;;;2634318;30;21132;-82
2021/09/23 09:03:34;;;;;;;11.73;8.57;;;;;;;;;;2632712;30;20374;-84
2021/09/23 09:06:03;;;;;;;11.63;7.10;;;;;;;;;;2630746;38;20339;-80
2021/09/23 09:08:31;;;;;;;8.93;7.47;;;;;;;;;;2627905;38;20900;-81
2021/09/23 09:10:57;;;;;;;13.00;8.83;;;;;;;;;;2627510;46;20375;-81
2021/09/23 09:13:32;;;;;;;9.30;6.83;;;;;;;;;;2630241;30;21251;-81
2021/09/23 09:16:04;;;;;;;9.00;7.30;;;;;;;;;;2630709;30;20347;-82
2021/09/23 09:18:30;;;;;;;7.93;6.77;;;;;;;;;;2625319;38;20370;-80
2021/09/23 09:20:57;;;;;;;10.00;7.90;;;;;;;;;;2628133;38;20926;-81
2021/09/23 09:23:24;;;;;;;7.57;6.70;;;;;;;;;;2628271;30;20827;-80
2021/09/23 09:25:51;;;;;;;9.13;6.97;;;;;;;;;;2626409;30;20383;-79
2021/09/23 09:28:21;;;;;;;10.07;7.93;;;;;;;;;;2628737;30;20367;-79
2021/09/23 09:30:57;;;;;;;9.17;7.93;;;;;;;;;;2626465;38;20363;-81
2021/09/23 09:33:34;;;;;;;8.50;7.60;;;;;;;;;;2624838;30;20840;-81
2021/09/23 09:36:00;;;;;;;8.80;8.00;;;;;;;;;;2629273;30;20375;-83
2021/09/23 09:38:26;;;;;;;11.73;7.33;;;;;;;;;;2624723;31;20371;-79
2021/09/23 09:40:54;;;;;;;8.10;7.30;;;;;;;;;;2624999;30;20336;-83
2021/09/23 09:43:21;;;;;;;11.90;7.47;;;;;;;;;;2624768;38;20363;-83
2021/09/23 09:45:48;;;;;;;8.93;8.03;;;;;;;;;;2621372;38;20919;-81
2021/09/23 09:48:15;;;;;;;9.80;8.30;;;;;;;;;;2622314;38;20399;-83
2021/09/23 09:50:44;;;;;;;14.37;8.43;;;;;;;;;;2623966;30;20405;-82
2021/09/23 09:53:13;;;;;;;10.10;9.07;;;;;;;;;;2625465;30;21013;-80
2021/09/23 09:55:40;;;;;;;9.33;7.93;;;;;;;;;;2625517;30;20769;-83
2021/09/23 09:58:06;;;;;;;10.27;9.37;;;;;;;;;;2626001;38;20355;-82
2021/09/23 10:00:33;;;;;;;10.33;8.20;;;;;;;;;;2623997;38;20840;-79
2021/09/23 10:03:00;;;;;;;10.10;8.83;;;;;;;;;;2626962;30;20377;-81
2021/09/23 10:05:26;;;;;;;9.13;8.33;;;;;;;;;;2624533;30;20399;-80
2021/09/23 10:07:54;;;;;;;10.60;8.50;;;;;;;;;;2628994;30;20391;-80
2021/09/23 10:10:25;;;;;;;11.77;8.80;;;;;;;;;;2628656;30;20355;-80
2021/09/23 10:12:52;;;;;;;9.90;9.00;;;;;;;;;;2628690;30;20387;-79
2021/09/23 10:15:18;;;;;;;9.30;8.40;;;;;;;;;;2631150;30;20374;-81
2021/09/23 10:17:45;;;;;;;9.43;8.63;;;;;;;;;;2628459;38;20399;-81
2021/09/23 10:20:13;;;;;;;9.23;8.43;;;;;;;;;;2631566;38;20381;-83
2021/09/23 10:22:39;;;;;;;9.53;8.40;;;;;;;;;;2627176;38;20435;-81
2021/09/23 10:25:06;;;;;;;8.17;7.37;;;;;;;;;;2646818;30;20370;-81
2021/09/23 10:30:19;;;;;;;11.33;8.00;;;;;;;;;;2630173;30;20359;-81
2021/09/23 10:32:46;;;;;;;8.80;8.00;;;;;;;;;;2630462;30;20356;-80
2021/09/23 10:35:22;;;;;;;10.07;8.47;;;;;;;;;;2631268;30;20500;-83
2021/09/23 10:37:48;;;;;;;9.90;8.90;;;;;;;;;;2630465;38;20358;-81
2021/09/23 10:40:16;;;;;;;9.87;8.87;;;;;;;;;;2631255;38;20386;-80
2021/09/23 10:42:43;;;;;;;9.57;8.67;;;;;;;;;;2631124;30;20490;-79
2021/09/23 10:45:10;;;;;;;8.20;7.50;;;;;;;;;;2629750;38;20767;-82
2021/09/23 10:47:36;;;;;;;9.73;8.73;;;;;;;;;;2629331;38;20448;-81
2021/09/23 10:50:04;;;;;;;9.00;8.10;;;;;;;;;;2630117;30;20927;-80
2021/09/23 10:52:34;;;;;;;9.50;8.60;;;;;;;;;;2627651;30;20431;-78
2021/09/23 10:55:01;;;;;;;14.70;9.40;;;;;;;;;;2629241;38;20371;-81
2021/09/23 10:57:28;;;;;;;11.07;9.97;;;;;;;;;;2627437;30;20717;-82
2021/09/23 10:59:54;;;;;;;14.13;10.03;;;;;;;;;;2624702;38;20374;-82
2021/09/23 11:02:28;;;;;;;12.43;10.50;;;;;;;;;;2627996;30;20378;-79
2021/09/23 11:04:59;;;;;;;10.70;9.73;;;;;;;;;;2633739;38;21041;-81
2021/09/23 11:07:29;;;;;;;14.47;9.20;;;;;;;;;;2630698;38;20417;-81
2021/09/23 11:10:04;;;;;;;10.07;9.17;;;;;;;;;;2629281;30;20367;-82
2021/09/23 11:12:30;;;;;;;11.17;10.17;;;;;;;;;;2633374;30;21007;-79
2021/09/23 11:14:58;;;;;;;11.33;10.23;;;;;;;;;;2632979;38;20379;-81
2021/09/23 11:17:28;;;;;;;9.97;9.13;;;;;;;;;;2632588;30;20498;-82
2021/09/23 11:20:06;;;;;;;13.17;10.27;;;;;;;;;;2634113;38;20347;-80
2021/09/23 11:22:33;;;;;;;10.83;9.93;;;;;;;;;;2633367;38;20382;-83
2021/09/23 11:25:01;;;;;;;10.80;10.00;;;;;;;;;;2632256;30;20408;-80
2021/09/23 11:27:30;;;;;;;9.10;8.40;;;;;;;;;;2632681;38;20354;-81
2021/09/23 11:29:56;;;;;;;10.80;9.70;;;;;;;;;;2631947;38;20346;-80
2021/09/23 11:32:23;;;;;;;11.07;10.00;;;;;;;;;;2632151;30;20413;-79
2021/09/23 11:35:01;;;;;;;10.13;9.13;;;;;;;;;;2634100;30;20386;-80
2021/09/23 11:37:37;;;;;;;11.93;9.80;;;;;;;;;;2636663;30;20415;-83
2021/09/23 11:40:04;;;;;;;10.77;9.67;;;;;;;;;;2637634;30;20355;-80
2021/09/23 11:42:35;;;;;;;10.60;9.70;;;;;;;;;;2627236;38;20347;-84
2021/09/23 11:45:24;;;;;;;10.90;10.03;;;;;;;;;;2629039;30;20378;-81
2021/09/23 11:47:55;;;;;;;11.43;10.53;;;;;;;;;;2628273;38;20509;-81
2021/09/23 11:50:23;;;;;;;11.97;10.87;;;;;;;;;;2626692;30;20370;-80
2021/09/23 11:52:52;;;;;;;11.33;10.13;;;;;;;;;;2625370;38;20385;-82
2021/09/23 11:55:18;;;;;;;12.70;11.50;;;;;;;;;;2627545;38;20391;-84
2021/09/23 11:57:45;;;;;;;11.30;10.30;;;;;;;;;;2626349;38;20470;-83
2021/09/23 12:00:12;;;;;;;12.10;10.73;;;;;;;;;;2631302;30;20343;-81
2021/09/23 12:02:38;;;;;;;12.53;11.20;;;;;;;;;;2628319;30;20494;-82
2021/09/23 12:05:04;;;;;;;11.20;10.27;;;;;;;;;;2626686;38;20359;-85
2021/09/23 12:07:42;;;;;;;14.80;11.63;;;;;;;;;;2627249;30;20411;-80
2021/09/23 12:10:14;;;;;;;11.67;10.67;;;;;;;;;;2630783;38;20418;-81
2021/09/23 12:12:41;;;;;;;12.07;11.07;;;;;;;;;;2626381;30;20379;-81
2021/09/23 12:15:08;;;;;;;11.87;10.97;;;;;;;;;;2626749;30;20525;-78
2021/09/23 12:17:34;;;;;;;12.63;10.50;;;;;;;;;;2628752;30;20395;-82
2021/09/23 12:20:03;;;;;;;11.43;10.43;;;;;;;;;;2626484;30;20382;-81
2021/09/23 12:22:31;;;;;;;12.83;10.87;;;;;;;;;;2626898;38;20471;-81
2021/09/23 12:24:57;;;;;;;11.63;10.67;;;;;;;;;;2625901;30;20407;-84
2021/09/23 12:27:23;;;;;;;11.33;10.20;;;;;;;;;;2625988;30;20387;-81
2021/09/23 12:29:53;;;;;;;11.93;9.97;;;;;;;;;;2626869;38;20423;-81
2021/09/23 12:32:20;;;;;;;10.10;9.20;;;;;;;;;;2629335;38;20928;-80
2021/09/23 12:34:47;;;;;;;12.73;11.53;;;;;;;;;;2630848;38;21020;-85
2021/09/23 12:37:14;;;;;;;10.97;10.00;;;;;;;;;;2636300;30;20348;-81
2021/09/23 12:39:45;;;;;;;14.00;11.70;;;;;;;;;;2633683;30;20359;-79
2021/09/23 12:42:12;;;;;;;13.10;12.07;;;;;;;;;;2634536;30;20378;-80
2021/09/23 12:44:40;;;;;;;12.60;11.50;;;;;;;;;;2632145;30;20386;-79
2021/09/23 12:47:09;;;;;;;12.83;11.60;;;;;;;;;;2631420;38;20750;-84
2021/09/23 12:49:35;;;;;;;13.17;11.80;;;;;;;;;;2635033;30;20371;-80
2021/09/23 12:52:17;;;;;;;15.07;11.80;;;;;;;;;;2634244;30;20340;-78
2021/09/23 12:55:12;;;;;;;14.30;10.70;;;;;;;;;;2630304;38;20888;-80
2021/09/23 12:57:44;;;;;;;13.63;11.27;;;;;;;;;;2630672;38;20721;-84
2021/09/23 13:00:12;;;;;;;11.53;10.50;;;;;;;;;;2630229;30;20358;-82
2021/09/23 13:02:39;;;;;;;13.70;12.30;;;;;;;;;;2630093;38;20439;-81
2021/09/23 13:05:06;;;;;;;10.43;9.63;;;;;;;;;;2631888;38;20383;-82
2021/09/23 13:07:39;;;;;;;12.67;11.50;;;;;;;;;;2633560;30;20382;-84
2021/09/23 13:10:09;;;;;;;13.40;11.40;;;;;;;;;;2630612;30;20399;-81
2021/09/23 13:12:43;;;;;;;12.37;11.23;;;;;;;;;;2628585;38;20383;-82
2021/09/23 13:15:17;;;;;;;11.60;10.43;;;;;;;;;;2630160;30;20800;-81
2021/09/23 13:17:54;;;;;;;12.10;10.90;;;;;;;;;;2627369;30;20597;-78
2021/09/23 13:20:20;;;;;;;15.13;9.80;;;;;;;;;;2628924;30;20378;-81
2021/09/23 13:22:46;;;;;;;12.20;9.83;;;;;;;;;;2630058;30;20375;-82
2021/09/23 13:25:12;;;;;;;14.40;11.30;;;;;;;;;;2627179;30;20397;-82
2021/09/23 13:27:41;;;;;;;10.90;9.80;;;;;;;;;;2628649;30;20362;-82
2021/09/23 13:30:11;;;;;;;11.10;10.03;;;;;;;;;;2628445;30;20498;-81
2021/09/23 13:32:38;;;;;;;13.33;10.57;;;;;;;;;;2629321;30;20773;-83
2021/09/23 13:35:04;;;;;;;10.43;9.53;;;;;;;;;;2628038;38;20832;-82
2021/09/23 13:37:31;;;;;;;12.70;11.60;;;;;;;;;;2630747;30;20355;-82
2021/09/23 13:39:58;;;;;;;16.50;10.53;;;;;;;;;;2631517;30;20367;-82
2021/09/23 13:42:24;;;;;;;11.27;10.07;;;;;;;;;;2631505;30;20379;-80
2021/09/23 13:44:50;;;;;;;13.60;11.50;;;;;;;;;;2630312;38;20367;-83
2021/09/23 13:47:17;;;;;;;11.07;9.80;;;;;;;;;;2631166;30;20371;-81
2021/09/23 13:49:43;;;;;;;14.30;11.03;;;;;;;;;;2631122;30;20367;-81
2021/09/23 13:52:14;;;;;;;11.47;10.37;;;;;;;;;;2635586;30;20924;-83
2021/09/23 13:54:41;;;;;;;13.07;11.10;;;;;;;;;;2640235;30;20339;-82
2021/09/23 13:57:09;;;;;;;13.50;11.03;;;;;;;;;;2629856;30;20361;-82
2021/09/23 13:59:35;;;;;;;13.90;11.67;;;;;;;;;;2634264;38;20367;-81
2021/09/23 14:02:01;;;;;;;14.83;13.20;;;;;;;;;;2635305;30;21232;-80
2021/09/23 14:04:27;;;;;;;13.83;11.77;;;;;;;;;;2630507;38;20370;-80
2021/09/23 14:06:53;;;;;;;12.17;10.73;;;;;;;;;;2632034;30;20339;-82
2021/09/23 14:09:19;;;;;;;12.60;11.50;;;;;;;;;;2631600;31;20882;-81
2021/09/23 14:11:45;;;;;;;11.87;10.67;;;;;;;;;;2629816;38;20391;-81
2021/09/23 14:14:17;;;;;;;11.70;10.10;;;;;;;;;;2629030;30;20462;-81
2021/09/23 14:16:43;;;;;;;13.03;11.23;;;;;;;;;;2632109;30;20374;-82
2021/09/23 14:19:09;;;;;;;12.63;11.33;;;;;;;;;;2630462;30;20382;-81
2021/09/23 14:21:35;;;;;;;12.93;11.57;;;;;;;;;;2628263;30;20387;-80
2021/09/23 14:24:02;;;;;;;16.07;11.20;;;;;;;;;;2630050;38;20406;-81
2021/09/23 14:26:28;;;;;;;13.13;10.93;;;;;;;;;;2632249;38;20372;-80